createdAt,value
2023-04-27T00:02:59.243Z,99650.32
2023-04-27T00:08:23.581Z,99647.98
2023-04-27T00:13:49.462Z,99640.76
2023-04-27T00:19:16.121Z,99636.30
2023-04-27T00:24:42.030Z,99633.31
2023-04-27T00:30:08.492Z,99636.16
2023-04-27T00:35:35.609Z,99634.13
2023-04-27T00:41:07.432Z,99638.80
2023-04-27T00:46:33.700Z,99640.64
2023-04-27T00:51:59.385Z,99639.18
2023-04-27T00:57:23.737Z,99637.88
2023-04-27T01:02:49.679Z,99637.92
2023-04-27T01:08:14.931Z,99638.16
2023-04-27T01:13:39.942Z,99642.80
2023-04-27T01:19:06.069Z,99643.08
2023-04-27T01:24:31.656Z,99637.64
2023-04-27T01:29:56.347Z,99643.64
2023-04-27T01:35:21.836Z,99643.99
2023-04-27T01:40:46.366Z,99646.48
2023-04-27T01:46:12.319Z,99652.05
2023-04-27T01:51:37.311Z,99654.61
2023-04-27T01:57:02.225Z,99658.89
2023-04-27T02:02:26.689Z,99660.20
2023-04-27T02:07:51.471Z,99663.30
2023-04-27T02:13:15.435Z,99662.94
2023-04-27T02:18:39.813Z,99665.43
2023-04-27T02:24:08.439Z,99667.79
2023-04-27T02:29:33.307Z,99667.89
2023-04-27T02:34:58.236Z,99674.34
2023-04-27T02:40:24.640Z,99674.98
2023-04-27T02:45:48.611Z,99679.59
2023-04-27T02:51:13.306Z,99686.02
2023-04-27T02:56:38.612Z,99685.52
2023-04-27T03:02:03.351Z,99676.80
2023-04-27T03:07:27.693Z,99677.48
2023-04-27T03:12:51.985Z,99678.75
2023-04-27T03:18:16.216Z,99677.95
2023-04-27T03:23:40.613Z,99676.45
2023-04-27T03:29:07.099Z,99679.99
2023-04-27T03:34:32.572Z,99682.71
2023-04-27T03:39:58.026Z,99686.04
2023-04-27T03:45:22.815Z,99694.80
2023-04-27T03:50:47.872Z,99698.80
2023-04-27T03:56:12.877Z,99702.96
2023-04-27T04:01:37.976Z,99703.77
2023-04-27T04:07:02.963Z,99712.20
2023-04-27T04:12:27.122Z,99717.67
2023-04-27T04:17:51.598Z,99721.45
2023-04-27T04:23:16.314Z,99725.15
2023-04-27T04:28:41.084Z,99731.60
2023-04-27T04:34:05.676Z,99737.53
2023-04-27T04:39:34.250Z,99740.37
2023-04-27T04:44:59.592Z,99744.92
2023-04-27T04:50:23.829Z,99743.69
2023-04-27T04:55:48.815Z,99747.30
2023-04-27T05:01:13.460Z,99747.83
2023-04-27T05:06:40.250Z,99755.34
2023-04-27T05:12:06.025Z,99758.66
2023-04-27T05:17:31.109Z,99762.55
2023-04-27T05:22:57.151Z,99760.77
2023-04-27T05:28:21.562Z,99767.20
2023-04-27T05:33:45.847Z,99768.69
2023-04-27T05:39:11.748Z,99769.65
2023-04-27T05:44:36.701Z,99773.27
2023-04-27T05:50:01.576Z,99777.60
2023-04-27T05:55:25.598Z,99782.46
2023-04-27T06:00:50.096Z,99784.19
2023-04-27T06:06:14.753Z,99782.81
2023-04-27T06:11:39.619Z,99783.66
2023-04-27T06:17:05.313Z,99789.97
2023-04-27T06:22:53.709Z,99791.20
2023-04-27T06:28:20.592Z,99787.02
2023-04-27T06:33:45.032Z,99793.95
2023-04-27T06:39:08.980Z,99794.63
2023-04-27T06:44:33.973Z,99793.92
2023-04-27T06:49:58.597Z,99793.20
2023-04-27T06:55:23.036Z,99793.11
2023-04-27T07:00:47.912Z,99793.95
2023-04-27T07:06:12.157Z,99790.42
2023-04-27T07:11:36.981Z,99789.27
2023-04-27T07:17:02.110Z,99789.38
2023-04-27T07:22:27.130Z,99788.25
2023-04-27T07:27:51.476Z,99792.42
2023-04-27T07:33:16.109Z,99793.00
2023-04-27T07:38:40.146Z,99793.48
2023-04-27T07:44:05.624Z,99789.47
2023-04-27T07:49:30.936Z,99790.44
2023-04-27T07:54:57.033Z,99798.05
2023-04-27T08:00:22.705Z,99796.15
2023-04-27T08:05:47.737Z,99792.53
2023-04-27T08:11:13.522Z,99795.59
2023-04-27T08:16:38.636Z,99790.55
2023-04-27T08:22:07.398Z,99789.28
2023-04-27T08:27:34.059Z,99787.73
2023-04-27T08:32:58.610Z,99784.89
2023-04-27T08:38:25.008Z,99773.77
2023-04-27T08:43:51.895Z,99774.65
2023-04-27T08:49:16.994Z,99784.06
2023-04-27T08:54:44.176Z,99790.29
2023-04-27T09:00:13.603Z,99790.89
2023-04-27T09:06:00.632Z,99795.98
2023-04-27T09:11:34.313Z,99796.18
2023-04-27T09:17:01.266Z,99796.72
2023-04-27T09:22:25.373Z,99795.52
2023-04-27T09:27:53.854Z,99795.34
2023-04-27T09:33:24.609Z,99801.88
2023-04-27T09:38:50.017Z,99801.63
2023-04-27T09:44:15.691Z,99802.48
2023-04-27T09:49:40.100Z,99805.45
2023-04-27T09:55:09.940Z,99801.50
2023-04-27T10:06:47.828Z,99783.52
2023-04-27T10:12:18.351Z,99785.88
2023-04-27T10:17:59.742Z,99790.84
2023-04-27T10:23:28.531Z,99797.46
2023-04-27T10:29:10.592Z,99798.27
2023-04-27T10:34:39.382Z,99814.95
2023-04-27T10:40:10.791Z,99812.80
2023-04-27T10:45:35.059Z,99806.98
2023-04-27T10:51:02.046Z,99805.95
2023-04-27T10:56:27.032Z,99801.98
2023-04-27T11:01:51.883Z,99796.77
2023-04-27T11:07:25.359Z,99791.52
2023-04-27T11:12:51.605Z,99790.36
2023-04-27T11:18:18.226Z,99784.90
2023-04-27T11:23:43.265Z,99787.91
2023-04-27T11:29:14.321Z,99786.64
2023-04-27T11:34:39.185Z,99789.38
2023-04-27T11:40:06.508Z,99786.14
2023-04-27T11:45:31.458Z,99782.22
2023-04-27T11:50:59.584Z,99793.23
2023-04-27T11:56:23.718Z,99802.61
2023-04-27T12:01:47.722Z,99805.20
2023-04-27T12:07:12.839Z,99800.77
2023-04-27T12:12:39.162Z,99802.06
2023-04-27T12:18:04.839Z,99796.81
2023-04-27T12:23:29.824Z,99798.34
2023-04-27T12:28:54.215Z,99801.73
2023-04-27T12:34:20.896Z,99801.02
2023-04-27T12:39:45.207Z,99800.53
2023-04-27T12:45:12.128Z,99802.58
2023-04-27T12:50:41.334Z,99798.98
2023-04-27T12:56:07.125Z,99802.48
2023-04-27T13:01:32.811Z,99795.75
2023-04-27T13:07:02.618Z,99799.41
2023-04-27T13:12:28.432Z,99800.67
2023-04-27T13:17:54.916Z,99796.76
2023-04-27T13:23:20.000Z,99796.93
2023-04-27T13:28:44.551Z,99799.77
2023-04-27T13:34:16.175Z,99801.52
2023-04-27T13:39:42.729Z,99799.25
2023-04-27T13:45:07.405Z,99792.64
2023-04-27T13:50:32.839Z,99789.75
2023-04-27T13:55:59.147Z,99785.32
2023-04-27T14:01:23.759Z,99790.55
2023-04-27T14:06:49.187Z,99788.60
2023-04-27T14:12:13.976Z,99789.48
2023-04-27T14:17:38.289Z,99784.14
2023-04-27T14:23:06.056Z,99786.47
2023-04-27T14:28:34.989Z,99788.73
2023-04-27T14:34:02.324Z,99788.02
2023-04-27T14:39:30.736Z,99788.13
2023-04-27T14:44:57.240Z,99779.13
2023-04-27T14:50:23.808Z,99782.61
2023-04-27T14:55:53.289Z,99784.69
2023-04-27T15:01:18.844Z,99781.52
2023-04-27T15:06:46.140Z,99779.75
2023-04-27T15:12:17.338Z,99782.09
2023-04-27T15:17:44.702Z,99782.95
2023-04-27T15:23:15.181Z,99785.23
2023-04-27T15:28:45.746Z,99787.24
2023-04-27T15:34:11.603Z,99792.16
2023-04-27T15:39:37.350Z,99794.06
2023-04-27T15:45:02.629Z,99789.03
2023-04-27T15:50:26.836Z,99789.48
2023-04-27T15:55:51.243Z,99789.84
2023-04-27T16:01:16.499Z,99788.75
2023-04-27T16:06:41.522Z,99785.83
2023-04-27T16:12:06.369Z,99786.84
2023-04-27T16:17:33.607Z,99780.98
2023-04-27T16:22:57.831Z,99776.46
2023-04-27T16:28:22.024Z,99771.33
2023-04-27T16:33:48.612Z,99773.28
2023-04-27T16:39:14.407Z,99777.16
2023-04-27T16:44:38.962Z,99771.81
2023-04-27T16:50:03.456Z,99765.97
2023-04-27T16:55:28.949Z,99762.86
2023-04-27T17:00:53.928Z,99762.20
2023-04-27T17:06:19.178Z,99767.04
2023-04-27T17:11:43.661Z,99767.63
2023-04-27T17:17:07.776Z,99768.27
2023-04-27T17:22:33.419Z,99767.88
2023-04-27T17:27:59.558Z,99773.65
2023-04-27T17:33:25.992Z,99775.61
2023-04-27T17:38:51.068Z,99778.48
2023-04-27T17:44:16.204Z,99779.36
2023-04-27T17:49:40.811Z,99781.17
2023-04-27T17:55:06.005Z,99788.85
2023-04-27T18:00:31.294Z,99795.58
2023-04-27T18:05:55.895Z,99797.92
2023-04-27T18:11:21.548Z,99801.59
2023-04-27T18:16:46.242Z,99801.88
2023-04-27T18:22:10.972Z,99807.52
2023-04-27T18:27:37.994Z,99812.33
2023-04-27T18:33:02.453Z,99822.77
2023-04-27T18:38:26.586Z,99826.42
2023-04-27T18:43:52.610Z,99835.30
2023-04-27T18:49:19.352Z,99839.58
2023-04-27T18:54:43.652Z,99843.26
2023-04-27T19:00:09.537Z,99852.60
2023-04-27T19:05:34.386Z,99860.77
2023-04-27T19:11:00.252Z,99860.30
2023-04-27T19:16:26.716Z,99864.90
2023-04-27T19:21:51.586Z,99862.70
2023-04-27T19:27:16.076Z,99866.21
2023-04-27T19:32:40.210Z,99870.13
2023-04-27T19:38:05.078Z,99874.02
2023-04-27T19:43:29.727Z,99879.67
2023-04-27T19:48:56.931Z,99878.94
2023-04-27T19:54:23.232Z,99881.19
2023-04-27T19:59:47.959Z,99881.85
2023-04-27T20:05:15.426Z,99888.15
2023-04-27T20:10:41.380Z,99879.17
2023-04-27T20:16:06.872Z,99879.23
2023-04-27T20:21:33.003Z,99874.94
2023-04-27T20:26:57.893Z,99872.67
2023-04-27T20:32:22.238Z,99868.83
2023-04-27T20:37:47.458Z,99865.33
2023-04-27T20:43:13.841Z,99867.42
2023-04-27T20:48:38.489Z,99868.65
2023-04-27T20:54:03.526Z,99866.34
2023-04-27T20:59:28.407Z,99868.92
2023-04-27T21:04:53.456Z,99868.48
2023-04-27T21:10:17.837Z,99870.81
2023-04-27T21:15:41.828Z,99872.11
2023-04-27T21:21:06.917Z,99858.67
2023-04-27T21:26:31.919Z,99862.98
2023-04-27T21:31:56.876Z,99861.10
2023-04-27T21:37:21.510Z,99856.58
2023-04-27T21:42:45.849Z,99854.58
2023-04-27T21:48:10.551Z,99855.23
2023-04-27T21:53:34.940Z,99848.66
2023-04-27T21:59:00.126Z,99845.98
2023-04-27T22:04:26.000Z,99848.61
2023-04-27T22:09:50.902Z,99847.30
2023-04-27T22:15:15.394Z,99842.34
2023-04-27T22:20:39.577Z,99848.67
2023-04-27T22:26:04.319Z,99844.56
2023-04-27T22:31:32.393Z,99843.28
2023-04-27T22:36:57.413Z,99844.17
2023-04-27T22:42:21.730Z,99846.50
2023-04-27T22:47:46.371Z,99842.89
2023-04-27T22:53:10.770Z,99843.25
2023-04-27T22:58:36.332Z,99839.77
2023-04-27T23:04:02.561Z,99838.70
2023-04-27T23:09:28.476Z,99837.59
2023-04-27T23:14:53.198Z,99830.57
2023-04-27T23:20:28.195Z,99831.30
2023-04-27T23:25:53.180Z,99829.07
2023-04-27T23:31:17.758Z,99828.93
2023-04-27T23:36:43.154Z,99827.79
2023-04-27T23:42:07.995Z,99823.35
2023-04-27T23:47:34.524Z,99821.05
2023-04-27T23:52:58.909Z,99819.86
2023-04-27T23:58:25.158Z,99820.48
